Time;durP1;ratioP1;P1;durP2;ratioP2;P2;SDS_P1;SDS_P2;PMS_P1;PMS_P2;Temp;Humidity;BMP_temperature;BMP_pressure;BME280_temperature;BME280_humidity;BME280_pressure;Samples;Min_cycle;Max_cycle;Signal;HPM_P1;HPM_P2
2023/09/29 00:01:35;;;;;;;12.38;8.25;;;11.70;99.90;;;;;;4923156;29;20046;-78
2023/09/29 00:04:04;;;;;;;14.50;8.13;;;11.70;99.90;;;;;;4923514;29;20047;-79
2023/09/29 00:06:32;;;;;;;12.35;8.32;;;11.70;99.90;;;;;;4919953;29;20163;-79
2023/09/29 00:09:00;;;;;;;15.02;9.05;;;11.60;99.90;;;;;;4917168;29;20048;-76
2023/09/29 00:11:31;;;;;;;12.18;7.60;;;11.60;99.90;;;;;;4919048;29;20135;-76
2023/09/29 00:14:00;;;;;;;14.15;8.88;;;11.50;99.90;;;;;;4918330;29;20520;-77
2023/09/29 00:16:27;;;;;;;14.43;8.95;;;11.60;99.90;;;;;;4918970;29;20146;-78
2023/09/29 00:18:56;;;;;;;13.48;9.02;;;11.60;99.90;;;;;;4917140;29;20037;-78
2023/09/29 00:21:23;;;;;;;12.40;9.13;;;11.80;99.90;;;;;;4919632;29;20068;-78
2023/09/29 00:23:51;;;;;;;16.02;7.93;;;11.60;99.90;;;;;;4918502;29;20055;-77
2023/09/29 00:26:19;;;;;;;10.95;7.50;;;11.60;99.90;;;;;;4918568;29;20050;-76
2023/09/29 00:28:50;;;;;;;11.57;7.18;;;11.50;99.90;;;;;;4899940;29;20058;-77
2023/09/29 00:31:19;;;;;;;11.77;8.20;;;11.60;99.90;;;;;;4924909;29;20032;-78
2023/09/29 00:33:46;;;;;;;16.88;9.10;;;11.50;99.90;;;;;;4901087;29;20496;-78
2023/09/29 00:36:13;;;;;;;13.45;8.10;;;11.30;99.90;;;;;;4915747;29;20055;-77
2023/09/29 00:38:41;;;;;;;13.90;8.25;;;11.30;99.90;;;;;;4898107;29;20511;-78
2023/09/29 00:41:08;;;;;;;13.05;8.50;;;11.20;99.90;;;;;;4917057;29;20047;-77
2023/09/29 00:43:36;;;;;;;14.32;7.93;;;11.30;99.90;;;;;;4900862;29;20043;-77
2023/09/29 00:46:08;;;;;;;13.13;8.13;;;11.30;99.90;;;;;;4916746;29;20134;-78
2023/09/29 00:48:38;;;;;;;12.63;8.05;;;11.30;99.90;;;;;;4915309;29;20044;-78
2023/09/29 00:51:06;;;;;;;10.70;7.22;;;11.30;99.90;;;;;;4914684;29;20040;-79
2023/09/29 00:53:34;;;;;;;14.00;7.60;;;11.30;99.90;;;;;;4914391;29;20130;-79
2023/09/29 00:56:02;;;;;;;10.55;7.00;;;11.30;99.90;;;;;;4898076;29;20048;-78
2023/09/29 00:58:30;;;;;;;11.35;8.20;;;11.30;99.90;;;;;;4915167;29;20075;-78
2023/09/29 01:00:58;;;;;;;10.82;7.72;;;11.30;99.90;;;;;;4913341;29;20143;-79
2023/09/29 01:03:25;;;;;;;14.10;7.60;;;11.20;99.90;;;;;;4907196;29;20440;-77
2023/09/29 01:05:56;;;;;;;13.35;8.25;;;11.20;99.90;;;;;;4887792;29;20469;-76
2023/09/29 01:08:26;;;;;;;12.15;8.00;;;11.10;99.90;;;;;;4887635;29;20055;-78
2023/09/29 01:10:53;;;;;;;13.45;8.07;;;11.10;99.90;;;;;;4886497;29;20037;-78
2023/09/29 01:13:21;;;;;;;12.32;7.65;;;11.10;99.90;;;;;;4886859;29;20051;-79
2023/09/29 01:15:49;;;;;;;11.73;7.75;;;11.10;99.90;;;;;;4900183;29;20040;-78
2023/09/29 01:18:17;;;;;;;14.52;7.90;;;11.10;99.90;;;;;;4884924;29;20044;-79
2023/09/29 01:20:44;;;;;;;13.73;7.45;;;11.00;99.90;;;;;;4888003;29;20131;-77
2023/09/29 01:23:14;;;;;;;15.05;7.78;;;11.00;99.90;;;;;;4890007;29;20045;-78
2023/09/29 01:25:43;;;;;;;12.32;6.82;;;11.00;99.90;;;;;;4906552;29;20040;-77
2023/09/29 01:28:12;;;;;;;13.32;7.40;;;10.90;99.90;;;;;;4889662;29;20990;-77
2023/09/29 01:30:40;;;;;;;12.35;7.03;;;10.90;99.90;;;;;;4905226;29;20059;-77
2023/09/29 01:33:08;;;;;;;12.45;7.63;;;10.90;99.90;;;;;;4888632;29;20063;-78
2023/09/29 01:35:35;;;;;;;9.68;6.70;;;10.90;99.90;;;;;;4887376;29;20494;-78
2023/09/29 01:38:03;;;;;;;10.75;7.05;;;10.90;99.90;;;;;;4887406;29;20079;-77
2023/09/29 01:40:30;;;;;;;10.27;6.75;;;10.90;99.90;;;;;;4887479;29;20079;-77
2023/09/29 01:42:59;;;;;;;12.10;7.50;;;11.00;99.90;;;;;;4902653;29;20127;-78
2023/09/29 01:45:27;;;;;;;11.63;7.78;;;10.90;99.90;;;;;;4901316;29;20552;-78
2023/09/29 01:47:55;;;;;;;11.02;6.68;;;10.90;99.90;;;;;;4900626;29;20048;-78
2023/09/29 01:50:23;;;;;;;9.95;7.15;;;10.90;99.90;;;;;;4887338;29;20164;-78
2023/09/29 01:52:51;;;;;;;11.40;7.53;;;10.90;99.90;;;;;;4883512;29;20436;-77
2023/09/29 01:55:22;;;;;;;11.57;8.30;;;10.90;99.90;;;;;;4899950;29;20047;-77
2023/09/29 01:57:53;;;;;;;10.45;7.10;;;10.80;99.90;;;;;;4920689;29;20040;-77
2023/09/29 02:00:24;;;;;;;12.68;7.53;;;10.80;99.90;;;;;;4912775;29;20122;-79
2023/09/29 02:02:52;;;;;;;10.18;7.43;;;10.80;99.90;;;;;;4926867;29;20052;-79
2023/09/29 02:05:20;;;;;;;13.50;7.88;;;10.80;99.90;;;;;;4919534;29;20074;-78
2023/09/29 02:07:59;;;;;;;10.88;7.32;;;10.80;99.90;;;;;;4910148;29;20500;-78
2023/09/29 02:10:28;;;;;;;11.38;7.45;;;10.90;99.90;;;;;;4913037;29;20490;-77
2023/09/29 02:12:57;;;;;;;10.50;8.25;;;10.80;99.90;;;;;;4897694;29;20500;-77
2023/09/29 02:15:28;;;;;;;12.85;8.38;;;10.70;99.90;;;;;;4895126;29;20504;-77
2023/09/29 02:17:57;;;;;;;12.85;7.68;;;10.70;99.90;;;;;;4892008;29;20052;-77
2023/09/29 02:20:38;;;;;;;12.15;7.68;;;10.70;99.90;;;;;;4909151;29;20040;-77
2023/09/29 02:23:07;;;;;;;15.07;7.72;;;10.60;99.90;;;;;;4889415;29;20040;-76
2023/09/29 02:25:34;;;;;;;10.18;7.20;;;10.60;99.90;;;;;;4888993;29;20048;-77
2023/09/29 02:28:03;;;;;;;10.77;7.45;;;10.60;99.90;;;;;;4889851;29;20040;-77
2023/09/29 02:30:32;;;;;;;9.15;6.82;;;10.60;99.90;;;;;;4907102;29;20124;-77
2023/09/29 02:32:59;;;;;;;12.30;7.55;;;10.50;99.90;;;;;;4909879;29;20311;-78
2023/09/29 02:35:28;;;;;;;13.60;7.80;;;10.50;99.90;;;;;;4894059;29;20044;-79
2023/09/29 02:37:55;;;;;;;11.45;8.38;;;10.40;99.90;;;;;;4894259;29;20051;-79
2023/09/29 02:40:23;;;;;;;12.13;7.75;;;10.40;99.90;;;;;;4893792;29;20052;-76
2023/09/29 02:42:51;;;;;;;12.80;8.40;;;10.30;99.90;;;;;;4890784;29;20132;-77
2023/09/29 02:45:20;;;;;;;11.43;7.57;;;10.30;99.90;;;;;;4907509;29;20071;-78
2023/09/29 02:47:49;;;;;;;20.13;9.65;;;10.40;99.90;;;;;;4887038;29;20364;-78
2023/09/29 02:50:16;;;;;;;15.35;9.68;;;10.40;99.90;;;;;;4904126;29;20048;-78
2023/09/29 02:52:44;;;;;;;14.82;8.55;;;10.30;99.90;;;;;;4889397;29;20107;-76
2023/09/29 02:55:12;;;;;;;10.82;7.45;;;10.30;99.90;;;;;;4907137;29;20110;-78
2023/09/29 02:57:41;;;;;;;12.98;7.85;;;10.30;99.90;;;;;;4886513;29;20057;-78
2023/09/29 03:00:15;;;;;;;11.82;7.47;;;10.30;99.90;;;;;;4901618;29;20406;-78
2023/09/29 03:02:43;;;;;;;13.40;8.25;;;10.30;99.90;;;;;;4920684;23;20058;-83
2023/09/29 03:05:14;;;;;;;11.40;7.18;;;10.30;99.90;;;;;;4934557;29;20492;-82
2023/09/29 03:07:41;;;;;;;12.30;8.10;;;10.30;99.90;;;;;;4931348;29;20044;-81
2023/09/29 03:10:12;;;;;;;14.23;7.95;;;10.20;99.90;;;;;;4932924;29;20086;-83
2023/09/29 03:12:40;;;;;;;12.20;7.47;;;10.10;99.90;;;;;;4930033;29;20074;-78
2023/09/29 03:15:09;;;;;;;12.07;8.20;;;10.10;99.90;;;;;;4933641;29;20036;-81
2023/09/29 03:17:37;;;;;;;13.43;8.35;;;10.20;99.90;;;;;;4942682;29;20047;-84
2023/09/29 03:20:08;;;;;;;11.10;7.88;;;10.10;99.90;;;;;;4936092;29;20048;-84
2023/09/29 03:22:45;;;;;;;16.05;8.07;;;10.00;99.90;;;;;;4946306;29;20052;-83
2023/09/29 03:25:16;;;;;;;13.32;7.93;;;9.90;99.90;;;;;;4930128;29;20408;-83
2023/09/29 03:27:44;;;;;;;13.98;8.50;;;9.80;99.90;;;;;;4946811;29;20055;-83
2023/09/29 03:30:13;;;;;;;12.45;8.23;;;9.90;99.90;;;;;;4924602;29;20048;-82
2023/09/29 03:32:40;;;;;;;9.90;7.60;;;10.00;99.90;;;;;;4929127;29;20076;-81
2023/09/29 03:35:09;;;;;;;13.13;7.80;;;10.10;99.90;;;;;;4941951;29;20062;-82
2023/09/29 03:37:38;;;;;;;11.50;7.47;;;10.10;99.90;;;;;;4928629;29;20307;-82
2023/09/29 03:40:08;;;;;;;12.70;8.07;;;10.20;99.90;;;;;;4927836;29;20044;-84
2023/09/29 03:42:37;;;;;;;11.73;8.25;;;10.10;99.90;;;;;;4929700;29;20048;-83
2023/09/29 03:45:06;;;;;;;13.93;8.40;;;10.00;99.90;;;;;;4927921;29;20059;-82
2023/09/29 03:47:35;;;;;;;11.00;7.25;;;10.00;99.90;;;;;;4927393;29;20044;-82
2023/09/29 03:50:04;;;;;;;12.20;7.78;;;10.00;99.90;;;;;;4943912;29;20048;-83
2023/09/29 03:52:33;;;;;;;14.85;7.75;;;10.00;99.90;;;;;;4932115;29;20469;-84
2023/09/29 03:55:00;;;;;;;11.65;7.13;;;9.90;99.90;;;;;;4928291;29;20051;-84
2023/09/29 03:57:29;;;;;;;12.70;7.60;;;9.90;99.90;;;;;;4928137;29;20098;-81
2023/09/29 03:59:57;;;;;;;13.70;7.85;;;10.00;99.90;;;;;;4927884;29;20564;-82
2023/09/29 04:02:25;;;;;;;13.90;8.70;;;9.90;99.90;;;;;;4924106;29;20044;-83
2023/09/29 04:04:53;;;;;;;11.43;8.07;;;9.90;99.90;;;;;;4910934;29;20436;-81
2023/09/29 04:07:21;;;;;;;12.00;8.40;;;9.80;99.90;;;;;;4910944;29;20058;-82
2023/09/29 04:09:49;;;;;;;13.25;7.40;;;9.80;99.90;;;;;;4930533;29;20135;-82
2023/09/29 04:12:17;;;;;;;13.98;7.50;;;9.80;99.90;;;;;;4911095;29;20071;-83
2023/09/29 04:14:46;;;;;;;12.02;7.82;;;9.80;99.90;;;;;;4913880;29;20048;-84
2023/09/29 04:17:14;;;;;;;10.88;7.38;;;9.80;99.90;;;;;;4928511;29;20046;-85
2023/09/29 04:19:55;;;;;;;11.27;7.38;;;9.80;99.90;;;;;;4911898;29;20041;-84
2023/09/29 04:22:24;;;;;;;14.10;6.57;;;9.70;99.90;;;;;;4929576;29;20050;-84
2023/09/29 04:24:51;;;;;;;15.18;7.28;;;9.90;99.90;;;;;;4911496;29;20159;-84
2023/09/29 04:27:19;;;;;;;13.10;7.80;;;9.90;99.90;;;;;;4915485;29;20047;-82
2023/09/29 04:29:48;;;;;;;17.88;8.45;;;9.80;99.90;;;;;;4910831;29;20432;-82
2023/09/29 04:32:16;;;;;;;11.30;7.60;;;10.00;99.90;;;;;;4913479;29;20135;-83
2023/09/29 04:34:43;;;;;;;13.35;7.97;;;9.90;99.90;;;;;;4913478;29;20063;-82
2023/09/29 04:37:11;;;;;;;13.15;8.57;;;9.90;99.90;;;;;;4914188;29;20066;-83
2023/09/29 04:39:39;;;;;;;11.20;8.00;;;9.90;99.90;;;;;;4916672;29;20047;-81
2023/09/29 04:42:06;;;;;;;13.65;7.90;;;9.80;99.90;;;;;;4916972;29;20048;-84
2023/09/29 04:44:34;;;;;;;15.60;8.88;;;9.90;99.90;;;;;;4915646;29;20048;-83
2023/09/29 04:47:04;;;;;;;15.45;8.00;;;9.80;99.90;;;;;;4912110;29;20063;-83
2023/09/29 04:49:31;;;;;;;13.80;9.40;;;9.90;99.90;;;;;;4933081;29;20060;-83
2023/09/29 04:51:59;;;;;;;15.30;8.50;;;9.90;99.90;;;;;;4920692;29;20054;-83
2023/09/29 04:54:31;;;;;;;15.35;8.43;;;9.80;99.90;;;;;;4921498;29;20043;-81
2023/09/29 04:57:00;;;;;;;12.07;8.70;;;9.80;99.90;;;;;;4915616;29;20036;-84
2023/09/29 04:59:28;;;;;;;20.17;9.38;;;9.80;99.90;;;;;;4911921;29;20048;-84
2023/09/29 05:01:56;;;;;;;14.50;8.98;;;9.80;99.90;;;;;;4932789;28;20016;-84
2023/09/29 05:04:28;;;;;;;17.58;9.73;;;9.90;99.90;;;;;;4909122;29;20108;-83
2023/09/29 05:06:55;;;;;;;21.33;11.80;;;9.90;99.90;;;;;;4933264;29;20465;-84
2023/09/29 05:09:23;;;;;;;15.98;10.02;;;10.00;99.90;;;;;;4919546;29;20095;-82
2023/09/29 05:11:51;;;;;;;12.98;9.40;;;9.90;99.90;;;;;;4911969;29;20044;-83
2023/09/29 05:14:18;;;;;;;16.85;8.98;;;9.90;99.90;;;;;;4915388;29;20044;-83
2023/09/29 05:16:47;;;;;;;15.95;9.18;;;10.00;99.90;;;;;;4913307;29;20062;-83
2023/09/29 05:19:14;;;;;;;17.48;9.18;;;10.00;99.90;;;;;;4918688;29;20052;-83
2023/09/29 05:21:44;;;;;;;15.40;8.35;;;10.10;99.90;;;;;;4926164;29;20051;-83
2023/09/29 05:24:11;;;;;;;18.17;8.52;;;10.20;99.90;;;;;;4922971;29;20079;-83
2023/09/29 05:26:39;;;;;;;11.85;7.32;;;10.20;99.90;;;;;;4935914;29;20044;-83
2023/09/29 05:29:06;;;;;;;14.45;7.93;;;10.20;99.90;;;;;;4916478;29;20055;-82
2023/09/29 05:31:34;;;;;;;9.38;7.30;;;10.30;99.90;;;;;;4911987;29;20039;-85
2023/09/29 05:34:02;;;;;;;13.15;9.02;;;10.40;99.90;;;;;;4910975;29;20059;-85
2023/09/29 05:36:29;;;;;;;11.77;7.95;;;10.50;99.90;;;;;;4908955;29;20071;-83
2023/09/29 05:38:58;;;;;;;15.80;8.20;;;10.70;99.90;;;;;;4910098;29;20149;-83
2023/09/29 05:41:26;;;;;;;17.80;9.18;;;10.70;99.90;;;;;;4909730;29;20048;-82
2023/09/29 05:43:55;;;;;;;15.35;9.18;;;10.80;99.90;;;;;;4911985;29;20040;-81
2023/09/29 05:46:22;;;;;;;18.77;8.60;;;11.00;99.90;;;;;;4912906;29;20052;-84
2023/09/29 05:48:50;;;;;;;16.75;8.27;;;11.00;99.90;;;;;;4912315;29;20043;-88
2023/09/29 05:51:18;;;;;;;19.83;10.38;;;11.20;99.90;;;;;;4913818;29;20050;-82
2023/09/29 05:53:45;;;;;;;16.70;9.75;;;11.30;99.90;;;;;;4931598;29;20116;-84
2023/09/29 05:56:16;;;;;;;16.90;9.05;;;11.50;99.90;;;;;;4910736;29;20052;-86
2023/09/29 05:58:44;;;;;;;17.17;8.48;;;11.70;99.90;;;;;;4929170;29;20400;-84
2023/09/29 06:01:12;;;;;;;12.68;8.25;;;11.90;99.90;;;;;;4913081;29;20051;-83
2023/09/29 06:03:40;;;;;;;16.65;8.70;;;12.00;99.90;;;;;;4917284;29;20052;-83
2023/09/29 06:06:10;;;;;;;15.45;8.55;;;12.20;99.90;;;;;;4942432;29;20052;-84
2023/09/29 06:08:38;;;;;;;17.42;9.18;;;12.40;99.90;;;;;;4918784;29;20599;-86
2023/09/29 06:11:07;;;;;;;22.45;13.27;;;12.60;99.90;;;;;;4932406;29;20088;-83
2023/09/29 06:13:43;;;;;;;22.08;13.40;;;12.70;99.90;;;;;;4931589;29;20051;-84
2023/09/29 06:16:11;;;;;;;17.17;10.50;;;12.90;1.00;;;;;;4920142;29;20074;-83
2023/09/29 06:18:40;;;;;;;21.17;10.18;;;13.10;99.90;;;;;;4913266;29;20155;-85
2023/09/29 06:21:10;;;;;;;13.13;8.82;;;13.20;99.90;;;;;;4934006;29;20145;-83
2023/09/29 06:23:39;;;;;;;15.77;8.15;;;13.40;1.00;;;;;;4921338;29;20048;-84
2023/09/29 06:26:09;;;;;;;14.48;8.70;;;13.50;1.00;;;;;;4921647;29;20050;-84
2023/09/29 06:28:39;;;;;;;13.45;8.40;;;13.60;99.90;;;;;;4938716;29;20036;-84
2023/09/29 06:31:09;;;;;;;16.27;8.85;;;13.70;1.00;;;;;;4924871;29;20115;-84
2023/09/29 06:33:37;;;;;;;19.80;8.68;;;13.80;99.90;;;;;;4921626;29;20060;-85
2023/09/29 06:36:05;;;;;;;17.70;9.07;;;14.00;1.00;;;;;;4929225;29;20039;-85
2023/09/29 06:38:33;;;;;;;17.55;9.10;;;14.20;1.00;;;;;;4923828;29;20068;-84
2023/09/29 06:41:01;;;;;;;16.02;9.05;;;14.30;99.90;;;;;;4929231;29;20051;-85
2023/09/29 06:43:28;;;;;;;22.95;8.95;;;14.50;99.90;;;;;;4915171;29;20078;-83
2023/09/29 06:45:56;;;;;;;13.63;8.68;;;14.60;7.10;;;;;;4928973;29;20060;-85
2023/09/29 06:48:26;;;;;;;17.05;10.27;;;14.70;1.00;;;;;;4933690;29;20040;-85
2023/09/29 06:50:58;;;;;;;15.40;7.85;;;14.80;99.90;;;;;;4931597;29;20135;-86
2023/09/29 06:53:28;;;;;;;12.57;7.15;;;15.00;1.00;;;;;;4930092;29;20131;-82
2023/09/29 06:55:59;;;;;;;14.40;7.63;;;15.20;1.00;;;;;;4920716;29;20099;-85
2023/09/29 06:58:26;;;;;;;20.88;8.32;;;15.30;1.00;;;;;;4935243;29;20040;-85
2023/09/29 07:00:56;;;;;;;11.05;6.75;;;15.40;99.90;;;;;;4919035;29;20055;-86
2023/09/29 07:03:29;;;;;;;16.67;10.02;;;15.50;99.90;;;;;;4933048;29;20036;-85
2023/09/29 07:05:57;;;;;;;13.73;7.35;;;15.70;1.00;;;;;;4930900;29;20048;-85
2023/09/29 07:08:25;;;;;;;18.77;7.85;;;15.80;1.00;;;;;;4941579;29;20128;-85
2023/09/29 07:10:53;;;;;;;16.42;8.98;;;16.10;1.00;;;;;;4925700;29;20110;-83
2023/09/29 07:13:20;;;;;;;20.95;9.13;;;16.30;99.90;;;;;;4922725;29;20043;-83
2023/09/29 07:15:48;;;;;;;13.82;8.18;;;16.50;99.90;;;;;;4917565;29;20119;-84
2023/09/29 07:18:16;;;;;;;20.33;8.15;;;16.60;1.00;;;;;;4931080;29;20071;-85
2023/09/29 07:20:50;;;;;;;16.35;8.85;;;16.80;1.00;;;;;;4913941;29;20127;-83
2023/09/29 07:23:18;;;;;;;17.58;10.07;;;16.80;99.90;;;;;;4916649;29;20039;-83
2023/09/29 07:25:47;;;;;;;21.30;10.60;;;16.90;99.90;;;;;;4915494;29;20046;-84
2023/09/29 07:28:17;;;;;;;25.55;11.73;;;17.10;99.90;;;;;;4913538;29;20048;-84
2023/09/29 07:30:47;;;;;;;22.45;12.02;;;17.20;99.90;;;;;;4913861;29;20099;-87
2023/09/29 07:33:15;;;;;;;23.70;11.25;;;17.40;48.40;;;;;;4913645;29;20126;-85
2023/09/29 07:35:46;;;;;;;19.92;13.00;;;17.60;1.00;;;;;;4913512;29;20047;-85
2023/09/29 07:38:17;;;;;;;23.73;14.00;;;17.70;1.00;;;;;;4886420;29;20054;-85
2023/09/29 07:40:46;;;;;;;17.75;10.82;;;17.80;1.00;;;;;;4910969;29;20040;-83
2023/09/29 07:43:13;;;;;;;18.20;11.07;;;17.90;1.00;;;;;;4914868;29;20058;-84
2023/09/29 07:45:42;;;;;;;15.45;9.45;;;18.00;1.00;;;;;;4929562;29;20052;-87
2023/09/29 07:48:10;;;;;;;15.80;8.63;;;18.00;1.00;;;;;;4913468;29;20036;-86
2023/09/29 07:50:38;;;;;;;19.95;10.60;;;18.00;1.00;;;;;;4929177;29;20051;-85
2023/09/29 07:53:08;;;;;;;15.07;9.55;;;18.10;1.00;;;;;;4916664;29;20099;-86
2023/09/29 07:55:39;;;;;;;17.02;8.68;;;18.20;1.00;;;;;;4935809;29;20066;-86
2023/09/29 07:58:08;;;;;;;11.75;8.13;;;18.30;1.00;;;;;;4922168;29;20118;-86
2023/09/29 08:00:35;;;;;;;16.08;8.98;;;18.30;1.00;;;;;;4913838;29;20078;-85
2023/09/29 08:03:07;;;;;;;14.98;8.07;;;18.40;1.00;;;;;;4912618;29;20043;-86
2023/09/29 08:05:35;;;;;;;17.20;10.55;;;18.50;1.00;;;;;;4910471;29;20047;-87
2023/09/29 08:08:03;;;;;;;14.02;8.02;;;18.60;1.00;;;;;;4928442;29;20523;-87
2023/09/29 08:10:32;;;;;;;17.30;9.90;;;18.70;1.00;;;;;;4922336;29;20055;-87
2023/09/29 08:13:01;;;;;;;17.50;9.60;;;18.80;1.00;;;;;;4922320;29;20130;-88
2023/09/29 08:15:29;;;;;;;14.45;8.52;;;19.00;1.00;;;;;;4907563;29;20111;-89
2023/09/29 08:17:58;;;;;;;17.70;8.27;;;19.20;1.00;;;;;;4914220;29;20602;-87
2023/09/29 08:20:27;;;;;;;15.50;8.68;;;19.40;99.90;;;;;;4924827;29;20067;-86
2023/09/29 08:22:56;;;;;;;16.83;8.63;;;19.50;99.90;;;;;;4914925;29;20044;-85
2023/09/29 08:25:24;;;;;;;18.40;13.02;;;19.70;99.90;;;;;;4916029;29;20055;-87
2023/09/29 08:27:53;;;;;;;14.40;7.78;;;19.80;99.90;;;;;;4923839;29;20040;-86
2023/09/29 08:30:21;;;;;;;16.52;8.63;;;19.80;99.90;;;;;;4935747;29;20055;-87
2023/09/29 08:32:49;;;;;;;20.63;10.13;;;20.00;99.90;;;;;;4925842;29;20035;-85
2023/09/29 08:35:17;;;;;;;18.60;9.75;;;20.00;99.90;;;;;;4934228;29;20058;-85
2023/09/29 08:37:46;;;;;;;19.27;9.45;;;20.10;99.90;;;;;;4950177;29;20043;-87
2023/09/29 08:40:17;;;;;;;16.10;10.35;;;20.10;99.90;;;;;;4930759;29;20051;-85
2023/09/29 08:42:49;;;;;;;18.88;10.60;;;20.10;99.90;;;;;;4952914;29;20054;-85
2023/09/29 08:45:31;;;;;;;17.58;10.60;;;20.20;99.90;;;;;;4934864;29;20043;-87
2023/09/29 08:48:03;;;;;;;19.63;8.70;;;20.40;99.90;;;;;;4936981;29;20044;-86
2023/09/29 08:50:31;;;;;;;20.15;11.52;;;20.40;70.00;;;;;;4937696;29;20032;-87
2023/09/29 08:53:01;;;;;;;16.25;8.60;;;20.40;59.20;;;;;;4937951;29;20040;-87
2023/09/29 08:55:29;;;;;;;21.27;9.55;;;20.50;66.70;;;;;;4939964;29;20055;-87
2023/09/29 08:57:57;;;;;;;15.50;9.38;;;20.60;64.40;;;;;;4935492;29;20051;-87
2023/09/29 09:00:26;;;;;;;24.48;9.73;;;20.70;83.70;;;;;;4933956;29;20047;-87
2023/09/29 09:02:58;;;;;;;17.58;9.55;;;20.70;67.50;;;;;;4950611;28;20040;-87
2023/09/29 09:05:26;;;;;;;20.63;9.38;;;20.80;69.50;;;;;;4949196;23;20056;-79
2023/09/29 09:07:54;;;;;;;16.80;10.23;;;20.80;57.10;;;;;;4905053;29;20051;-76
2023/09/29 09:10:31;;;;;;;19.17;11.25;;;20.80;74.00;;;;;;4920975;29;20957;-77
2023/09/29 09:12:59;;;;;;;17.20;8.93;;;20.90;50.40;;;;;;4911547;29;20070;-78
2023/09/29 09:15:27;;;;;;;13.38;7.95;;;21.10;45.80;;;;;;4910792;29;20044;-77
2023/09/29 09:17:58;;;;;;;16.08;8.50;;;21.20;47.80;;;;;;4913149;29;20524;-78
2023/09/29 09:20:26;;;;;;;15.25;6.47;;;21.40;48.70;;;;;;4915751;29;20411;-77
2023/09/29 09:22:58;;;;;;;14.43;7.68;;;21.40;26.70;;;;;;4933379;29;20069;-75
2023/09/29 09:25:37;;;;;;;11.05;6.85;;;21.50;28.10;;;;;;4920373;29;20051;-75
2023/09/29 09:28:05;;;;;;;16.83;8.43;;;21.50;22.10;;;;;;4944420;29;20062;-76
2023/09/29 09:30:35;;;;;;;11.48;7.10;;;21.60;11.30;;;;;;4942659;29;20075;-76
2023/09/29 09:33:06;;;;;;;14.20;6.90;;;21.70;1.30;;;;;;4918345;29;20496;-78
2023/09/29 09:35:37;;;;;;;16.45;10.15;;;21.60;1.00;;;;;;4937578;29;20511;-76
2023/09/29 09:38:05;;;;;;;13.57;6.85;;;21.60;1.00;;;;;;4945055;29;20057;-77
2023/09/29 09:40:34;;;;;;;13.25;7.68;;;21.50;1.00;;;;;;4942872;29;20091;-76
2023/09/29 09:43:03;;;;;;;14.77;9.65;;;21.50;1.00;;;;;;4940415;29;20131;-77
2023/09/29 09:45:37;;;;;;;14.07;8.88;;;21.70;1.00;;;;;;4916571;29;20040;-76
2023/09/29 09:48:08;;;;;;;20.17;11.77;;;21.70;1.00;;;;;;4932340;29;20052;-77
2023/09/29 09:50:37;;;;;;;18.35;8.98;;;22.00;1.00;;;;;;4934694;29;20111;-78
2023/09/29 09:53:09;;;;;;;15.25;7.45;;;22.10;1.00;;;;;;4928514;29;20079;-75
2023/09/29 09:55:40;;;;;;;12.98;7.13;;;22.30;1.00;;;;;;4926416;29;20405;-76
2023/09/29 09:58:12;;;;;;;14.88;7.75;;;22.40;1.00;;;;;;4911304;29;20147;-77
2023/09/29 10:00:42;;;;;;;17.77;9.45;;;22.30;1.00;;;;;;4914586;29;20062;-76
2023/09/29 10:03:13;;;;;;;15.23;7.30;;;22.40;1.00;;;;;;4929653;29;20040;-76
2023/09/29 10:05:42;;;;;;;11.57;6.95;;;22.40;1.00;;;;;;4924922;29;20063;-77
2023/09/29 10:08:12;;;;;;;16.20;8.30;;;22.40;1.00;;;;;;4946305;29;20044;-76
2023/09/29 10:10:42;;;;;;;16.90;6.88;;;22.50;1.00;;;;;;4919112;29;20048;-75
2023/09/29 10:13:12;;;;;;;13.02;5.68;;;22.70;1.00;;;;;;4912583;29;20048;-76
2023/09/29 10:15:42;;;;;;;15.15;6.32;;;22.70;1.00;;;;;;4923585;29;20067;-75
2023/09/29 10:18:19;;;;;;;8.98;6.13;;;22.70;1.00;;;;;;4917804;29;20050;-74
2023/09/29 10:20:51;;;;;;;11.23;5.50;;;22.80;1.00;;;;;;4918665;29;20059;-77
2023/09/29 10:23:19;;;;;;;10.65;6.70;;;22.80;1.00;;;;;;4924191;29;20107;-78
2023/09/29 10:25:58;;;;;;;10.43;5.70;;;23.00;1.00;;;;;;4925185;29;20088;-75
2023/09/29 10:28:33;;;;;;;16.92;6.57;;;23.20;1.00;;;;;;4939294;29;20694;-75
2023/09/29 10:31:08;;;;;;;14.70;5.50;;;23.30;1.00;;;;;;4919240;29;20115;-73
2023/09/29 10:33:51;;;;;;;12.52;6.25;;;23.50;1.00;;;;;;4916629;29;20046;-75
2023/09/29 10:36:20;;;;;;;18.20;8.88;;;23.60;1.00;;;;;;4923723;29;20047;-76
2023/09/29 10:38:48;;;;;;;8.95;5.43;;;23.80;1.00;;;;;;4932305;29;20047;-76
2023/09/29 10:41:18;;;;;;;11.25;4.93;;;23.80;1.00;;;;;;4926244;29;20050;-75
2023/09/29 10:43:48;;;;;;;14.23;6.30;;;23.90;1.00;;;;;;4913940;29;20048;-76
2023/09/29 10:46:17;;;;;;;10.07;5.43;;;23.90;1.00;;;;;;4918635;29;20047;-76
2023/09/29 10:48:50;;;;;;;10.45;6.50;;;24.00;1.00;;;;;;4914451;29;20135;-77
2023/09/29 10:51:24;;;;;;;12.93;5.38;;;24.00;1.00;;;;;;4914030;29;20072;-75
2023/09/29 10:53:52;;;;;;;13.38;6.00;;;24.00;1.00;;;;;;4920425;29;20043;-75
2023/09/29 10:56:21;;;;;;;11.93;5.00;;;24.00;1.00;;;;;;4917555;29;20428;-75
2023/09/29 10:58:52;;;;;;;10.68;5.45;;;24.00;1.00;;;;;;4914971;29;20388;-75
2023/09/29 11:01:27;;;;;;;15.77;5.25;;;24.00;1.00;;;;;;4918003;29;20055;-77
2023/09/29 11:03:56;;;;;;;12.13;6.30;;;24.10;1.00;;;;;;4919750;29;20051;-74
2023/09/29 11:06:24;;;;;;;11.55;5.80;;;24.10;1.00;;;;;;4930003;29;20051;-75
2023/09/29 11:08:54;;;;;;;9.32;5.35;;;24.20;1.00;;;;;;4936667;29;20047;-77
2023/09/29 11:11:22;;;;;;;11.85;5.40;;;24.20;1.00;;;;;;4941404;29;20055;-74
2023/09/29 11:13:57;;;;;;;15.40;6.78;;;24.30;1.00;;;;;;4940753;29;20058;-76
2023/09/29 11:16:27;;;;;;;14.43;5.95;;;24.30;1.00;;;;;;4936005;28;20059;-76
2023/09/29 11:19:07;;;;;;;11.85;4.85;;;24.30;1.00;;;;;;4933835;29;20055;-75
2023/09/29 11:21:35;;;;;;;18.15;4.75;;;24.30;1.00;;;;;;4949776;28;20131;-76
2023/09/29 11:24:08;;;;;;;9.90;5.65;;;24.30;1.00;;;;;;4920026;29;20069;-74
2023/09/29 11:26:51;;;;;;;12.63;7.95;;;24.30;1.00;;;;;;4931894;29;20047;-74
2023/09/29 11:29:22;;;;;;;11.77;5.45;;;24.40;1.00;;;;;;4932916;29;20064;-77
2023/09/29 11:31:53;;;;;;;10.50;6.32;;;24.50;1.00;;;;;;4935736;29;20044;-76
2023/09/29 11:34:29;;;;;;;14.35;5.35;;;24.50;1.00;;;;;;4934896;28;20047;-74
2023/09/29 11:36:56;;;;;;;11.95;5.00;;;24.70;1.00;;;;;;4941000;29;20517;-78
2023/09/29 11:39:24;;;;;;;15.25;6.25;;;24.70;1.00;;;;;;4935556;29;20058;-75
2023/09/29 11:41:52;;;;;;;13.40;5.50;;;24.80;1.00;;;;;;4944134;29;20047;-78
2023/09/29 11:44:20;;;;;;;10.38;5.72;;;24.90;1.00;;;;;;4923589;29;20070;-77
2023/09/29 11:46:50;;;;;;;15.00;6.32;;;24.90;1.00;;;;;;4934812;29;20472;-76
2023/09/29 11:49:17;;;;;;;14.13;5.82;;;24.90;1.00;;;;;;4947367;29;20039;-76
2023/09/29 11:51:48;;;;;;;12.30;5.30;;;24.90;1.00;;;;;;4967015;28;20039;-76
2023/09/29 11:54:16;;;;;;;17.50;6.30;;;24.80;1.00;;;;;;4961179;28;20028;-76
2023/09/29 11:56:44;;;;;;;10.10;4.55;;;24.80;1.00;;;;;;4968682;28;20099;-77
2023/09/29 11:59:11;;;;;;;13.82;4.78;;;24.80;1.00;;;;;;4955189;28;20071;-77
2023/09/29 12:01:39;;;;;;;8.02;3.72;;;24.90;1.00;;;;;;4960018;28;20062;-77
2023/09/29 12:04:07;;;;;;;12.23;5.45;;;25.00;1.00;;;;;;4967405;29;20050;-77
2023/09/29 12:06:35;;;;;;;13.90;5.07;;;25.10;1.00;;;;;;4929840;29;20059;-73
2023/09/29 12:09:05;;;;;;;10.90;4.63;;;25.10;1.00;;;;;;4914617;29;20052;-76
2023/09/29 12:11:33;;;;;;;9.27;4.28;;;25.20;1.00;;;;;;4932633;29;20111;-76
2023/09/29 12:14:03;;;;;;;10.43;4.32;;;25.10;1.00;;;;;;4918432;29;20039;-76
2023/09/29 12:16:35;;;;;;;10.95;3.83;;;25.20;1.00;;;;;;4916604;29;20047;-76
2023/09/29 12:19:03;;;;;;;11.10;5.22;;;25.10;1.00;;;;;;4931984;29;20079;-78
2023/09/29 12:21:31;;;;;;;18.23;10.02;;;25.30;1.00;;;;;;4912110;29;20195;-75
2023/09/29 12:24:01;;;;;;;32.80;21.60;;;25.20;1.00;;;;;;4915768;29;20036;-76
2023/09/29 12:26:30;;;;;;;15.57;5.70;;;25.10;1.00;;;;;;4914915;29;20153;-77
2023/09/29 12:29:06;;;;;;;12.93;4.30;;;25.10;1.00;;;;;;4925004;29;20625;-75
2023/09/29 12:31:51;;;;;;;12.48;4.80;;;25.10;1.00;;;;;;4919661;29;20053;-78
2023/09/29 12:34:21;;;;;;;16.50;11.13;;;25.30;1.00;;;;;;4928855;29;20048;-75
2023/09/29 12:36:54;;;;;;;15.20;8.48;;;25.20;1.00;;;;;;4913648;29;20048;-75
2023/09/29 12:39:28;;;;;;;10.02;4.80;;;25.30;1.00;;;;;;4928493;29;20040;-76
2023/09/29 12:41:57;;;;;;;11.65;6.13;;;25.30;1.00;;;;;;4930473;29;20068;-75
2023/09/29 12:44:25;;;;;;;12.93;5.80;;;25.20;1.00;;;;;;4949774;28;20036;-75
2023/09/29 12:46:52;;;;;;;11.55;4.78;;;25.30;1.00;;;;;;4929160;29;20044;-75
2023/09/29 12:49:19;;;;;;;10.93;4.30;;;25.30;1.00;;;;;;4914758;29;20083;-76
2023/09/29 12:51:47;;;;;;;12.57;5.63;;;25.30;1.00;;;;;;4933466;29;20060;-78